N3518X ETNL-EDHE
Flight info
| Callsign | N3518X |
|---|---|
| Flight time | 1h 10m |
| Altitude | 4000 |
| Route | DCT |
| Aircraft | BE36/L-BDFGLORY/S |
Departure
| Time | 2026-04-26 09:40 |
|---|---|
| Airport | Rostock-Laage Airport (ETNL) |
Arrival
| Time | 2026-04-26 10:51 |
|---|---|
| Airport | Uetersen-Heist Airfield (EDHE) |
| Time | Latitude | Longitude | Altitude | Speed | Heading |
|---|---|---|---|---|---|
| 2026-04-26 09:23 | 53.91465 | 12.29105 | 141 ft | 0 kts | 4° |
| 2026-04-26 09:32 | 53.91466 | 12.29105 | 141 ft | 0 kts | 4° |
| 2026-04-26 09:34 | 53.91472 | 12.29106 | 141 ft | 5 kts | 7° |
| 2026-04-26 09:35 | 53.91495 | 12.29201 | 142 ft | 16 kts | 96° |
| 2026-04-26 09:35 | 53.91477 | 12.29430 | 142 ft | 23 kts | 99° |
| 2026-04-26 09:35 | 53.91476 | 12.29709 | 142 ft | 12 kts | 59° |
| 2026-04-26 09:35 | 53.91492 | 12.29735 | 142 ft | 0 kts | 40° |
| 2026-04-26 09:36 | 53.91502 | 12.29749 | 142 ft | 5 kts | 37° |
| 2026-04-26 09:36 | 53.91553 | 12.29772 | 142 ft | 6 kts | 5° |
| 2026-04-26 09:36 | 53.91560 | 12.29773 | 142 ft | 0 kts | 9° |
| 2026-04-26 09:37 | 53.91581 | 12.29779 | 143 ft | 7 kts | 9° |
| 2026-04-26 09:37 | 53.91649 | 12.29786 | 144 ft | 12 kts | 322° |
| 2026-04-26 09:37 | 53.91669 | 12.29704 | 143 ft | 0 kts | 277° |
| 2026-04-26 09:39 | 53.91688 | 12.29452 | 144 ft | 63 kts | 277° |
| 2026-04-26 09:39 | 53.91762 | 12.28432 | 318 ft | 102 kts | 282° |
| 2026-04-26 09:40 | 53.91842 | 12.27165 | 694 ft | 109 kts | 281° |
| 2026-04-26 09:40 | 53.92038 | 12.25989 | 958 ft | 101 kts | 316° |
| 2026-04-26 09:40 | 53.92676 | 12.25642 | 988 ft | 105 kts | 9° |
| 2026-04-26 09:40 | 53.93245 | 12.26426 | 1006 ft | 114 kts | 56° |
| 2026-04-26 09:41 | 53.93588 | 12.27641 | 1005 ft | 114 kts | 63° |
| 2026-04-26 09:41 | 53.93939 | 12.28811 | 1031 ft | 109 kts | 45° |
| 2026-04-26 09:41 | 53.94541 | 12.29476 | 1084 ft | 101 kts | 8° |
| 2026-04-26 09:41 | 53.95193 | 12.29227 | 1094 ft | 102 kts | 325° |
| 2026-04-26 09:42 | 53.95747 | 12.28470 | 1130 ft | 102 kts | 321° |
| 2026-04-26 09:42 | 53.96287 | 12.27666 | 1113 ft | 106 kts | 320° |
| 2026-04-26 09:42 | 53.96860 | 12.26808 | 1179 ft | 111 kts | 320° |
| 2026-04-26 09:42 | 53.97428 | 12.25894 | 1256 ft | 112 kts | 317° |
| 2026-04-26 09:43 | 53.97998 | 12.24945 | 1287 ft | 115 kts | 320° |
| 2026-04-26 09:43 | 53.98585 | 12.23989 | 1317 ft | 117 kts | 320° |
| 2026-04-26 09:43 | 53.99189 | 12.23037 | 1351 ft | 122 kts | 320° |
| 2026-04-26 09:43 | 53.99828 | 12.22097 | 1439 ft | 122 kts | 322° |
| 2026-04-26 09:44 | 54.00474 | 12.21190 | 1552 ft | 120 kts | 326° |
| 2026-04-26 09:44 | 54.01190 | 12.20443 | 1622 ft | 122 kts | 333° |
| 2026-04-26 09:44 | 54.01933 | 12.19789 | 1749 ft | 121 kts | 333° |
| 2026-04-26 09:44 | 54.02694 | 12.19148 | 1840 ft | 123 kts | 335° |
| 2026-04-26 09:45 | 54.03467 | 12.18504 | 1886 ft | 125 kts | 334° |
| 2026-04-26 09:45 | 54.04269 | 12.17826 | 1850 ft | 133 kts | 334° |
| 2026-04-26 09:45 | 54.05151 | 12.17108 | 1886 ft | 145 kts | 335° |
| 2026-04-26 09:45 | 54.06091 | 12.16391 | 2006 ft | 151 kts | 338° |
| 2026-04-26 09:46 | 54.07073 | 12.15679 | 2014 ft | 156 kts | 338° |
| 2026-04-26 09:46 | 54.08094 | 12.14938 | 2014 ft | 160 kts | 338° |
| 2026-04-26 09:46 | 54.08990 | 12.13820 | 2064 ft | 165 kts | 311° |
| 2026-04-26 09:46 | 54.09643 | 12.12168 | 2000 ft | 169 kts | 307° |
| 2026-04-26 09:47 | 54.10382 | 12.10656 | 1944 ft | 167 kts | 321° |
| 2026-04-26 09:47 | 54.11351 | 12.09634 | 1971 ft | 163 kts | 337° |
| 2026-04-26 09:47 | 54.12424 | 12.09165 | 1972 ft | 160 kts | 354° |
| 2026-04-26 09:47 | 54.13547 | 12.09158 | 1909 ft | 161 kts | 1° |
| 2026-04-26 09:48 | 54.13774 | 12.09171 | 1912 ft | 161 kts | 1° |
| 2026-04-26 09:49 | 54.13809 | 12.09173 | 1912 ft | 160 kts | 1° |
| 2026-04-26 09:49 | 54.14914 | 12.09202 | 1935 ft | 158 kts | 359° |
| 2026-04-26 09:50 | 54.16006 | 12.09167 | 1939 ft | 160 kts | 358° |
| 2026-04-26 09:50 | 54.17122 | 12.09047 | 2088 ft | 157 kts | 355° |
| 2026-04-26 09:50 | 54.18186 | 12.09236 | 2193 ft | 157 kts | 12° |
| 2026-04-26 09:50 | 54.19221 | 12.08927 | 2171 ft | 156 kts | 322° |
| 2026-04-26 09:51 | 54.19530 | 12.07171 | 1917 ft | 175 kts | 258° |
| 2026-04-26 09:51 | 54.19091 | 12.05198 | 1799 ft | 172 kts | 251° |
| 2026-04-26 09:51 | 54.18663 | 12.03374 | 1809 ft | 160 kts | 250° |
| 2026-04-26 09:51 | 54.18249 | 12.01599 | 1674 ft | 160 kts | 252° |
| 2026-04-26 09:52 | 54.17866 | 11.99866 | 1676 ft | 154 kts | 252° |
| 2026-04-26 09:52 | 54.17059 | 11.96666 | 1773 ft | 145 kts | 246° |
| 2026-04-26 09:52 | 54.16596 | 11.95113 | 1707 ft | 149 kts | 247° |
| 2026-04-26 09:53 | 54.16366 | 11.93375 | 1675 ft | 148 kts | 265° |
| 2026-04-26 09:53 | 54.16221 | 11.91689 | 1831 ft | 137 kts | 264° |
| 2026-04-26 09:53 | 54.16064 | 11.90155 | 2057 ft | 126 kts | 264° |
| 2026-04-26 09:53 | 54.15899 | 11.88703 | 2299 ft | 125 kts | 264° |
| 2026-04-26 09:54 | 54.15790 | 11.87737 | 2454 ft | 125 kts | 263° |
| 2026-04-26 09:54 | 54.15620 | 11.86210 | 2505 ft | 137 kts | 263° |
| 2026-04-26 09:54 | 54.15444 | 11.84554 | 2517 ft | 143 kts | 263° |
| 2026-04-26 09:54 | 54.15260 | 11.82877 | 2514 ft | 145 kts | 260° |
| 2026-04-26 09:55 | 54.14826 | 11.81304 | 2516 ft | 148 kts | 244° |
| 2026-04-26 09:55 | 54.14321 | 11.79734 | 2282 ft | 152 kts | 245° |
| 2026-04-26 09:55 | 54.13662 | 11.78311 | 2021 ft | 155 kts | 226° |
| 2026-04-26 09:55 | 54.12865 | 11.77031 | 1776 ft | 159 kts | 225° |
| 2026-04-26 09:56 | 54.12083 | 11.75750 | 1501 ft | 153 kts | 226° |
| 2026-04-26 09:56 | 54.11337 | 11.74483 | 1232 ft | 150 kts | 227° |
| 2026-04-26 09:56 | 54.10599 | 11.73245 | 1009 ft | 150 kts | 227° |
| 2026-04-26 09:56 | 54.09863 | 11.72007 | 1010 ft | 148 kts | 226° |
| 2026-04-26 09:57 | 54.09125 | 11.70759 | 1013 ft | 150 kts | 228° |
| 2026-04-26 09:57 | 54.08470 | 11.69373 | 1015 ft | 151 kts | 234° |
| 2026-04-26 09:57 | 54.07810 | 11.67959 | 1009 ft | 152 kts | 238° |
| 2026-04-26 09:57 | 54.07476 | 11.66289 | 1021 ft | 148 kts | 255° |
| 2026-04-26 09:58 | 54.07199 | 11.64611 | 1020 ft | 147 kts | 254° |
| 2026-04-26 09:58 | 54.06927 | 11.62965 | 1176 ft | 142 kts | 254° |
| 2026-04-26 09:58 | 54.06661 | 11.61358 | 1438 ft | 140 kts | 255° |
| 2026-04-26 09:58 | 54.06394 | 11.59768 | 1696 ft | 138 kts | 255° |
| 2026-04-26 09:59 | 54.06129 | 11.58207 | 1963 ft | 137 kts | 255° |
| 2026-04-26 09:59 | 54.05860 | 11.56667 | 2220 ft | 135 kts | 255° |
| 2026-04-26 09:59 | 54.05601 | 11.55149 | 2475 ft | 132 kts | 264° |
| 2026-04-26 09:59 | 54.05782 | 11.53687 | 2731 ft | 128 kts | 297° |
| 2026-04-26 10:00 | 54.06242 | 11.52405 | 2990 ft | 126 kts | 303° |
| 2026-04-26 10:00 | 54.06703 | 11.51152 | 3250 ft | 123 kts | 303° |
| 2026-04-26 10:00 | 54.07152 | 11.49921 | 3514 ft | 122 kts | 303° |
| 2026-04-26 10:00 | 54.07591 | 11.48697 | 3768 ft | 120 kts | 303° |
| 2026-04-26 10:01 | 54.08017 | 11.47485 | 4023 ft | 118 kts | 303° |
| 2026-04-26 10:01 | 54.08434 | 11.46287 | 4284 ft | 117 kts | 303° |
| 2026-04-26 10:01 | 54.08846 | 11.45083 | 4509 ft | 120 kts | 303° |
| 2026-04-26 10:01 | 54.09295 | 11.43777 | 4523 ft | 134 kts | 303° |
| 2026-04-26 10:02 | 54.09788 | 11.42355 | 4526 ft | 144 kts | 303° |
| 2026-04-26 10:02 | 54.10323 | 11.40819 | 4526 ft | 156 kts | 303° |
| 2026-04-26 10:02 | 54.10894 | 11.39198 | 4527 ft | 163 kts | 303° |
| 2026-04-26 10:02 | 54.11485 | 11.37524 | 4527 ft | 166 kts | 303° |
| 2026-04-26 10:03 | 54.12080 | 11.35838 | 4527 ft | 168 kts | 303° |
| 2026-04-26 10:03 | 54.12683 | 11.34123 | 4524 ft | 169 kts | 303° |
| 2026-04-26 10:03 | 54.13291 | 11.32395 | 4522 ft | 170 kts | 303° |
| 2026-04-26 10:03 | 54.13900 | 11.30663 | 4525 ft | 170 kts | 303° |
| 2026-04-26 10:04 | 54.14507 | 11.28935 | 4526 ft | 170 kts | 303° |
| 2026-04-26 10:04 | 54.15118 | 11.27204 | 4527 ft | 170 kts | 303° |
| 2026-04-26 10:04 | 54.15728 | 11.25470 | 4526 ft | 171 kts | 303° |
| 2026-04-26 10:04 | 54.16340 | 11.23729 | 4527 ft | 171 kts | 303° |
| 2026-04-26 10:05 | 54.16951 | 11.21994 | 4526 ft | 171 kts | 303° |
| 2026-04-26 10:05 | 54.17558 | 11.20273 | 4526 ft | 171 kts | 303° |
| 2026-04-26 10:05 | 54.18169 | 11.18539 | 4519 ft | 171 kts | 303° |
| 2026-04-26 10:05 | 54.18793 | 11.16814 | 4513 ft | 171 kts | 303° |
| 2026-04-26 10:06 | 54.19426 | 11.15088 | 4513 ft | 171 kts | 303° |
| 2026-04-26 10:06 | 54.20088 | 11.13402 | 4512 ft | 171 kts | 311° |
| 2026-04-26 10:06 | 54.20912 | 11.11915 | 4348 ft | 174 kts | 315° |
| 2026-04-26 10:06 | 54.21761 | 11.10459 | 4083 ft | 172 kts | 317° |
| 2026-04-26 10:07 | 54.22807 | 11.09514 | 3821 ft | 172 kts | 342° |
| 2026-04-26 10:07 | 54.23972 | 11.09052 | 3561 ft | 173 kts | 349° |
| 2026-04-26 10:07 | 54.25168 | 11.08897 | 3307 ft | 173 kts | 2° |
| 2026-04-26 10:07 | 54.26370 | 11.08937 | 3045 ft | 173 kts | 358° |
| 2026-04-26 10:08 | 54.27572 | 11.08903 | 2784 ft | 173 kts | 358° |
| 2026-04-26 10:08 | 54.28776 | 11.08874 | 2521 ft | 173 kts | 359° |
| 2026-04-26 10:08 | 54.29982 | 11.08839 | 2260 ft | 174 kts | 358° |
| 2026-04-26 10:08 | 54.31191 | 11.08800 | 2028 ft | 173 kts | 359° |
| 2026-04-26 10:09 | 54.32354 | 11.08764 | 2018 ft | 162 kts | 358° |
| 2026-04-26 10:09 | 54.33454 | 11.08731 | 2010 ft | 155 kts | 358° |
| 2026-04-26 10:09 | 54.34502 | 11.08704 | 2011 ft | 147 kts | 358° |
| 2026-04-26 10:09 | 54.35513 | 11.08703 | 2010 ft | 143 kts | 4° |
| 2026-04-26 10:10 | 54.36472 | 11.09094 | 2012 ft | 144 kts | 17° |
| 2026-04-26 10:10 | 54.37432 | 11.09612 | 2014 ft | 141 kts | 18° |
| 2026-04-26 10:10 | 54.38361 | 11.10211 | 1885 ft | 150 kts | 20° |
| 2026-04-26 10:10 | 54.39358 | 11.10969 | 1635 ft | 162 kts | 25° |
| 2026-04-26 10:11 | 54.40308 | 11.11972 | 1527 ft | 158 kts | 47° |
| 2026-04-26 10:11 | 54.40806 | 11.13598 | 1521 ft | 152 kts | 70° |
| 2026-04-26 10:11 | 54.41144 | 11.15260 | 1517 ft | 143 kts | 70° |
| 2026-04-26 10:11 | 54.41463 | 11.16841 | 1510 ft | 137 kts | 70° |
| 2026-04-26 10:12 | 54.41763 | 11.18364 | 1507 ft | 132 kts | 70° |
| 2026-04-26 10:12 | 54.42323 | 11.19527 | 1508 ft | 127 kts | 31° |
| 2026-04-26 10:12 | 54.43130 | 11.20134 | 1506 ft | 126 kts | 15° |
| 2026-04-26 10:12 | 54.43998 | 11.20322 | 1509 ft | 126 kts | 358° |
| 2026-04-26 10:13 | 54.44865 | 11.20114 | 1508 ft | 126 kts | 345° |
| 2026-04-26 10:13 | 54.45670 | 11.19619 | 1507 ft | 123 kts | 333° |
| 2026-04-26 10:13 | 54.46382 | 11.18812 | 1506 ft | 122 kts | 319° |
| 2026-04-26 10:13 | 54.46951 | 11.17750 | 1506 ft | 120 kts | 306° |
| 2026-04-26 10:14 | 54.47397 | 11.16541 | 1507 ft | 119 kts | 301° |
| 2026-04-26 10:14 | 54.47831 | 11.15325 | 1506 ft | 120 kts | 301° |
| 2026-04-26 10:14 | 54.48264 | 11.14096 | 1509 ft | 121 kts | 301° |
| 2026-04-26 10:14 | 54.48688 | 11.12845 | 1509 ft | 122 kts | 294° |
| 2026-04-26 10:15 | 54.48841 | 11.11416 | 1493 ft | 123 kts | 272° |
| 2026-04-26 10:15 | 54.48757 | 11.09951 | 1462 ft | 126 kts | 262° |
| 2026-04-26 10:15 | 54.48646 | 11.08417 | 1329 ft | 132 kts | 264° |
| 2026-04-26 10:15 | 54.48562 | 11.06826 | 1183 ft | 135 kts | 265° |
| 2026-04-26 10:16 | 54.48471 | 11.05228 | 1107 ft | 133 kts | 265° |
| 2026-04-26 10:16 | 54.48372 | 11.03651 | 1042 ft | 132 kts | 260° |
| 2026-04-26 10:16 | 54.47933 | 11.02259 | 952 ft | 137 kts | 226° |
| 2026-04-26 10:16 | 54.47131 | 11.01359 | 886 ft | 141 kts | 204° |
| 2026-04-26 10:17 | 54.46229 | 11.00758 | 914 ft | 138 kts | 201° |
| 2026-04-26 10:17 | 54.45331 | 11.00197 | 917 ft | 136 kts | 194° |
| 2026-04-26 10:17 | 54.44442 | 11.00558 | 893 ft | 137 kts | 134° |
| 2026-04-26 10:17 | 54.44283 | 11.02040 | 906 ft | 136 kts | 65° |
| 2026-04-26 10:18 | 54.44866 | 11.03375 | 822 ft | 139 kts | 48° |
| 2026-04-26 10:18 | 54.45473 | 11.04601 | 863 ft | 131 kts | 53° |
| 2026-04-26 10:18 | 54.45863 | 11.05982 | 880 ft | 131 kts | 73° |
| 2026-04-26 10:18 | 54.46018 | 11.07561 | 825 ft | 138 kts | 84° |
| 2026-04-26 10:19 | 54.46044 | 11.09225 | 769 ft | 140 kts | 91° |
| 2026-04-26 10:19 | 54.45848 | 11.10844 | 681 ft | 141 kts | 107° |
| 2026-04-26 10:19 | 54.45587 | 11.12455 | 668 ft | 130 kts | 121° |
| 2026-04-26 10:19 | 54.45144 | 11.12174 | 477 ft | 125 kts | 304° |
| 2026-04-26 10:20 | 54.45597 | 11.10765 | 156 ft | 145 kts | 285° |
| 2026-04-26 10:20 | 54.45762 | 11.09683 | 531 ft | 133 kts | 282° |
| 2026-04-26 10:20 | 54.45924 | 11.07645 | 1011 ft | 130 kts | 268° |
| 2026-04-26 10:20 | 54.45665 | 11.06126 | 1188 ft | 138 kts | 246° |
| 2026-04-26 10:21 | 54.45235 | 11.04645 | 1441 ft | 139 kts | 242° |
| 2026-04-26 10:21 | 54.44707 | 11.03250 | 1693 ft | 140 kts | 236° |
| 2026-04-26 10:21 | 54.44226 | 11.01797 | 1927 ft | 141 kts | 250° |
| 2026-04-26 10:21 | 54.43936 | 11.00193 | 2167 ft | 140 kts | 253° |
| 2026-04-26 10:22 | 54.43647 | 10.98596 | 2408 ft | 140 kts | 253° |
| 2026-04-26 10:22 | 54.43353 | 10.96985 | 2515 ft | 145 kts | 253° |
| 2026-04-26 10:22 | 54.43042 | 10.95283 | 2522 ft | 152 kts | 253° |
| 2026-04-26 10:22 | 54.42619 | 10.93596 | 2529 ft | 157 kts | 239° |
| 2026-04-26 10:23 | 54.42009 | 10.92022 | 2528 ft | 159 kts | 237° |
| 2026-04-26 10:23 | 54.41390 | 10.90424 | 2528 ft | 161 kts | 237° |
| 2026-04-26 10:23 | 54.40770 | 10.88815 | 2526 ft | 162 kts | 238° |
| 2026-04-26 10:23 | 54.40143 | 10.87207 | 2528 ft | 162 kts | 237° |
| 2026-04-26 10:24 | 54.39515 | 10.85595 | 2525 ft | 163 kts | 237° |
| 2026-04-26 10:24 | 54.38889 | 10.83973 | 2525 ft | 163 kts | 237° |
| 2026-04-26 10:24 | 54.38259 | 10.82359 | 2525 ft | 163 kts | 237° |
| 2026-04-26 10:24 | 54.37631 | 10.80742 | 2525 ft | 163 kts | 237° |
| 2026-04-26 10:25 | 54.37005 | 10.79121 | 2526 ft | 163 kts | 237° |
| 2026-04-26 10:25 | 54.36373 | 10.77505 | 2526 ft | 163 kts | 237° |
| 2026-04-26 10:25 | 54.35751 | 10.75903 | 2526 ft | 163 kts | 237° |
| 2026-04-26 10:25 | 54.35122 | 10.74281 | 2526 ft | 163 kts | 237° |
| 2026-04-26 10:26 | 54.34496 | 10.72659 | 2523 ft | 163 kts | 237° |
| 2026-04-26 10:26 | 54.33870 | 10.71035 | 2523 ft | 163 kts | 237° |
| 2026-04-26 10:26 | 54.33245 | 10.69412 | 2523 ft | 163 kts | 237° |
| 2026-04-26 10:26 | 54.32628 | 10.67779 | 2518 ft | 163 kts | 237° |
| 2026-04-26 10:27 | 54.32016 | 10.66138 | 2519 ft | 164 kts | 237° |
| 2026-04-26 10:27 | 54.31401 | 10.64491 | 2518 ft | 164 kts | 237° |
| 2026-04-26 10:27 | 54.30785 | 10.62844 | 2519 ft | 164 kts | 237° |
| 2026-04-26 10:27 | 54.30168 | 10.61194 | 2523 ft | 165 kts | 237° |
| 2026-04-26 10:28 | 54.29556 | 10.59556 | 2523 ft | 165 kts | 237° |
| 2026-04-26 10:28 | 54.28938 | 10.57889 | 2524 ft | 166 kts | 237° |
| 2026-04-26 10:28 | 54.28319 | 10.56226 | 2514 ft | 164 kts | 237° |
| 2026-04-26 10:28 | 54.27703 | 10.54577 | 2519 ft | 165 kts | 237° |
| 2026-04-26 10:29 | 54.27084 | 10.52913 | 2517 ft | 165 kts | 237° |
| 2026-04-26 10:29 | 54.26464 | 10.51251 | 2517 ft | 165 kts | 237° |
| 2026-04-26 10:29 | 54.25848 | 10.49602 | 2517 ft | 164 kts | 237° |
| 2026-04-26 10:29 | 54.25233 | 10.47952 | 2519 ft | 165 kts | 237° |
| 2026-04-26 10:30 | 54.24625 | 10.46317 | 2516 ft | 165 kts | 237° |
| 2026-04-26 10:30 | 54.24005 | 10.44663 | 2518 ft | 165 kts | 237° |
| 2026-04-26 10:30 | 54.23388 | 10.43000 | 2513 ft | 165 kts | 237° |
| 2026-04-26 10:30 | 54.22773 | 10.41349 | 2517 ft | 165 kts | 237° |
| 2026-04-26 10:31 | 54.22152 | 10.39695 | 2515 ft | 165 kts | 237° |
| 2026-04-26 10:31 | 54.21531 | 10.38044 | 2515 ft | 166 kts | 237° |
| 2026-04-26 10:31 | 54.20913 | 10.36386 | 2514 ft | 165 kts | 237° |
| 2026-04-26 10:31 | 54.20294 | 10.34725 | 2516 ft | 166 kts | 237° |
| 2026-04-26 10:32 | 54.19675 | 10.33069 | 2520 ft | 165 kts | 237° |
| 2026-04-26 10:32 | 54.19054 | 10.31413 | 2515 ft | 165 kts | 237° |
| 2026-04-26 10:32 | 54.18434 | 10.29762 | 2521 ft | 166 kts | 237° |
| 2026-04-26 10:32 | 54.17812 | 10.28100 | 2521 ft | 166 kts | 237° |
| 2026-04-26 10:33 | 54.17189 | 10.26439 | 2520 ft | 166 kts | 237° |
| 2026-04-26 10:33 | 54.16567 | 10.24784 | 2519 ft | 166 kts | 237° |
| 2026-04-26 10:33 | 54.15950 | 10.23147 | 2520 ft | 166 kts | 237° |
| 2026-04-26 10:33 | 54.15329 | 10.21495 | 2521 ft | 166 kts | 237° |
| 2026-04-26 10:34 | 54.14707 | 10.19845 | 2517 ft | 165 kts | 237° |
| 2026-04-26 10:34 | 54.14090 | 10.18199 | 2518 ft | 165 kts | 237° |
| 2026-04-26 10:34 | 54.13473 | 10.16558 | 2517 ft | 164 kts | 237° |
| 2026-04-26 10:34 | 54.12856 | 10.14917 | 2516 ft | 164 kts | 237° |
| 2026-04-26 10:35 | 54.12243 | 10.13282 | 2516 ft | 164 kts | 237° |
| 2026-04-26 10:35 | 54.11628 | 10.11642 | 2520 ft | 165 kts | 237° |
| 2026-04-26 10:35 | 54.11006 | 10.10000 | 2517 ft | 165 kts | 237° |
| 2026-04-26 10:35 | 54.10392 | 10.08359 | 2519 ft | 164 kts | 237° |
| 2026-04-26 10:36 | 54.09771 | 10.06715 | 2519 ft | 165 kts | 237° |
| 2026-04-26 10:36 | 54.09154 | 10.05075 | 2515 ft | 164 kts | 237° |
| 2026-04-26 10:36 | 54.08533 | 10.03428 | 2521 ft | 165 kts | 237° |
| 2026-04-26 10:36 | 54.07910 | 10.01778 | 2515 ft | 165 kts | 236° |
| 2026-04-26 10:37 | 54.07007 | 10.00652 | 2509 ft | 165 kts | 193° |
| 2026-04-26 10:37 | 54.05882 | 10.00785 | 2517 ft | 163 kts | 173° |
| 2026-04-26 10:37 | 54.04756 | 10.00916 | 2515 ft | 163 kts | 177° |
| 2026-04-26 10:37 | 54.03623 | 10.01013 | 2519 ft | 163 kts | 177° |
| 2026-04-26 10:38 | 54.02487 | 10.01115 | 2518 ft | 164 kts | 177° |
| 2026-04-26 10:38 | 54.01349 | 10.01216 | 2519 ft | 163 kts | 177° |
| 2026-04-26 10:38 | 54.00216 | 10.01317 | 2519 ft | 163 kts | 177° |
| 2026-04-26 10:38 | 53.99096 | 10.01415 | 2519 ft | 163 kts | 177° |
| 2026-04-26 10:39 | 53.98332 | 10.01482 | 2519 ft | 163 kts | 177° |
| 2026-04-26 10:39 | 53.96836 | 10.01614 | 2519 ft | 163 kts | 177° |
| 2026-04-26 10:39 | 53.95703 | 10.01715 | 2519 ft | 163 kts | 177° |
| 2026-04-26 10:39 | 53.94569 | 10.01816 | 2519 ft | 163 kts | 177° |
| 2026-04-26 10:40 | 53.93803 | 10.01884 | 2519 ft | 163 kts | 177° |
| 2026-04-26 10:40 | 53.92670 | 10.01988 | 2519 ft | 163 kts | 177° |
| 2026-04-26 10:40 | 53.91535 | 10.02089 | 2518 ft | 164 kts | 177° |
| 2026-04-26 10:40 | 53.90403 | 10.01911 | 2517 ft | 164 kts | 194° |
| 2026-04-26 10:41 | 53.89326 | 10.01299 | 2517 ft | 163 kts | 202° |
| 2026-04-26 10:41 | 53.88338 | 10.00343 | 2517 ft | 164 kts | 213° |
| 2026-04-26 10:41 | 53.87402 | 9.99303 | 2523 ft | 163 kts | 213° |
| 2026-04-26 10:41 | 53.86449 | 9.98246 | 2523 ft | 165 kts | 213° |
| 2026-04-26 10:42 | 53.85489 | 9.97182 | 2525 ft | 165 kts | 213° |
| 2026-04-26 10:42 | 53.84524 | 9.96105 | 2520 ft | 165 kts | 213° |
| 2026-04-26 10:42 | 53.83569 | 9.95039 | 2519 ft | 164 kts | 213° |
| 2026-04-26 10:42 | 53.82618 | 9.93980 | 2515 ft | 163 kts | 213° |
| 2026-04-26 10:43 | 53.81675 | 9.92922 | 2516 ft | 163 kts | 213° |
| 2026-04-26 10:43 | 53.80729 | 9.91868 | 2513 ft | 163 kts | 213° |
| 2026-04-26 10:43 | 53.79780 | 9.90811 | 2521 ft | 164 kts | 213° |
| 2026-04-26 10:43 | 53.78820 | 9.89734 | 2520 ft | 166 kts | 213° |
| 2026-04-26 10:44 | 53.77852 | 9.88656 | 2520 ft | 166 kts | 213° |
| 2026-04-26 10:44 | 53.76899 | 9.87598 | 2523 ft | 165 kts | 213° |
| 2026-04-26 10:44 | 53.75940 | 9.86533 | 2517 ft | 164 kts | 213° |
| 2026-04-26 10:44 | 53.74978 | 9.85465 | 2516 ft | 165 kts | 213° |
| 2026-04-26 10:45 | 53.74024 | 9.84400 | 2516 ft | 164 kts | 213° |
| 2026-04-26 10:45 | 53.73076 | 9.83339 | 2515 ft | 163 kts | 213° |
| 2026-04-26 10:45 | 53.72123 | 9.82279 | 2514 ft | 163 kts | 213° |
| 2026-04-26 10:45 | 53.71178 | 9.81223 | 2514 ft | 163 kts | 213° |
| 2026-04-26 10:46 | 53.70230 | 9.80170 | 2513 ft | 164 kts | 213° |
| 2026-04-26 10:46 | 53.69279 | 9.79112 | 2528 ft | 161 kts | 213° |
| 2026-04-26 10:46 | 53.68352 | 9.78047 | 2391 ft | 162 kts | 214° |
| 2026-04-26 10:46 | 53.67607 | 9.76627 | 2170 ft | 165 kts | 244° |
| 2026-04-26 10:47 | 53.67482 | 9.74719 | 1952 ft | 168 kts | 282° |
| 2026-04-26 10:47 | 53.68093 | 9.73049 | 1724 ft | 171 kts | 321° |
| 2026-04-26 10:47 | 53.69192 | 9.72454 | 1504 ft | 169 kts | 3° |
| 2026-04-26 10:47 | 53.70202 | 9.73285 | 1348 ft | 163 kts | 50° |
| 2026-04-26 10:48 | 53.70496 | 9.75001 | 1316 ft | 152 kts | 100° |
| 2026-04-26 10:48 | 53.69899 | 9.76420 | 1135 ft | 154 kts | 151° |
| 2026-04-26 10:48 | 53.68860 | 9.76593 | 1014 ft | 152 kts | 190° |
| 2026-04-26 10:48 | 53.67885 | 9.76178 | 929 ft | 133 kts | 197° |
| 2026-04-26 10:49 | 53.67101 | 9.75691 | 837 ft | 110 kts | 202° |
| 2026-04-26 10:49 | 53.66468 | 9.75177 | 703 ft | 94 kts | 210° |
| 2026-04-26 10:49 | 53.65889 | 9.74578 | 637 ft | 101 kts | 214° |
| 2026-04-26 10:49 | 53.65325 | 9.73922 | 555 ft | 89 kts | 217° |
| 2026-04-26 10:50 | 53.64857 | 9.73303 | 436 ft | 85 kts | 223° |
| 2026-04-26 10:50 | 53.64638 | 9.72793 | 374 ft | 79 kts | 252° |
| 2026-04-26 10:50 | 53.64609 | 9.71613 | 196 ft | 76 kts | 274° |
| 2026-04-26 10:50 | 53.64645 | 9.70726 | 30 ft | 66 kts | 271° |
| 2026-04-26 10:51 | 53.64659 | 9.70124 | 24 ft | 41 kts | 272° |
| 2026-04-26 10:51 | 53.64583 | 9.69989 | 25 ft | 18 kts | 113° |
| 2026-04-26 10:51 | 53.64575 | 9.70206 | 25 ft | 19 kts | 89° |
| 2026-04-26 10:52 | 53.64534 | 9.70365 | 25 ft | 15 kts | 198° |
| 2026-04-26 10:52 | 53.64472 | 9.70341 | 25 ft | 6 kts | 190° |
| 2026-04-26 10:52 | 53.64444 | 9.70319 | 25 ft | 4 kts | 266° |
| 2026-04-26 10:52 | 53.64445 | 9.70296 | 25 ft | 0 kts | 272° |